Fort Madison, IA (52627)

9:20 PM CST on December 10, 2016 (GMT -0600)
River Bend Condos | | Change Station

Elev 535 ft 40.63 °N, 91.37 °W | Updated 2 minutes ago

Overcast
Overcast
29.5 °F
Feels Like 24 °F
N
5.0
Wind Variable Wind from ESE

Today
High -- | Low -- °F
--% Chance of Precip.
Yesterday
High -- | Low -- °F
Precip. -- in
Pressure 30.17 in
Visibility 10.0 miles
Clouds Overcast 6000 ft
Windchill 24 °F
Dew Point 19 °F
Humidity 65%
Rainfall 0.00 in
Snow Depth Not available.
7:18 AM 4:38 PM
Waxing Gibbous, 88% visible
METAR KFSW 110315Z AUTO 14011G14KT 10SM OVC060 M02/M07 A3017 RMK AO2
Pressure 30.17 in
Visibility 10.0 miles
Clouds Overcast 6000 ft
Windchill 24 °F
Dew Point 19 °F
Humidity 65%
Rainfall 0.00 in
Snow Depth Not available.
7:18 AM 4:38 PM
Waxing Gibbous, 88% visible
METAR KFSW 110315Z AUTO 14011G14KT 10SM OVC060 M02/M07 A3017 RMK AO2

10-Day Weather Forecast

Almanac

Astronomy

Dec. 10, 2016 Rise Set
Actual Time
Civil Twilight
Nautical Twilight
Astronomical Twilight
Moon
Length of Visible Light
Length of Day
Tomorrow will be .
, % of the Moon is Illuminated

Today's Extremes

State Highs State Lows

Community

WunderPhotos

Upload Photos

1,956,699 photos uploaded!

WunderBlog® & News

Nearby

Air Quality

  Air Quality AQ Index Pollutant
Not available.

Snow Depth

Station Depth Elevation

Earthquake Activity

City Distance Mag. Time & Date
Minimum magnitude displayed is 2.5.

Coastal Water Temperatures

Place Temperature

Stations

Nearby Weather Stations

Station Location Temp. Windchill Dew Point Humidity Wind Precip. Elev Updated Type
                   

Watches & Warnings

There are currently no watches in effect.